createdAt,value
2023-04-19T00:01:16.473Z,14.83
2023-04-19T00:03:45.913Z,13.93
2023-04-19T00:06:15.527Z,15.03
2023-04-19T00:08:44.854Z,16.50
2023-04-19T00:11:13.937Z,17.13
2023-04-19T00:13:47.175Z,16.33
2023-04-19T00:16:16.264Z,16.20
2023-04-19T00:18:45.104Z,16.03
2023-04-19T00:21:13.492Z,17.27
2023-04-19T00:23:42.233Z,17.17
2023-04-19T00:26:11.890Z,18.30
2023-04-19T00:28:40.637Z,17.17
2023-04-19T00:31:10.997Z,16.70
2023-04-19T00:33:39.785Z,15.33
2023-04-19T00:36:09.115Z,14.93
2023-04-19T00:38:38.015Z,16.63
2023-04-19T00:41:07.919Z,16.70
2023-04-19T00:43:37.069Z,17.40
2023-04-19T00:46:06.030Z,14.30
2023-04-19T00:48:37.597Z,18.10
2023-04-19T00:51:11.019Z,16.10
2023-04-19T00:53:40.486Z,15.00
2023-04-19T00:56:09.783Z,16.27
2023-04-19T00:58:42.574Z,16.37
2023-04-19T01:01:11.723Z,16.40
2023-04-19T01:03:42.559Z,15.30
2023-04-19T01:06:11.260Z,15.53
2023-04-19T01:08:40.194Z,17.00
2023-04-19T01:11:09.399Z,18.90
2023-04-19T01:13:38.138Z,19.57
2023-04-19T01:16:08.405Z,18.60
2023-04-19T01:18:38.060Z,18.17
2023-04-19T01:21:09.067Z,16.70
2023-04-19T01:23:40.885Z,16.47
2023-04-19T01:26:10.120Z,15.57
2023-04-19T01:28:38.853Z,17.90
2023-04-19T01:31:07.574Z,17.03
2023-04-19T01:33:36.410Z,16.43
2023-04-19T01:36:05.848Z,17.50
2023-04-19T01:38:36.645Z,18.53
2023-04-19T01:41:09.048Z,15.77
2023-04-19T01:43:37.855Z,15.37
2023-04-19T01:46:06.552Z,17.23
2023-04-19T01:48:35.116Z,18.50
2023-04-19T01:51:03.719Z,19.13
2023-04-19T01:53:32.501Z,17.20
2023-04-19T01:56:01.183Z,17.40
2023-04-19T01:58:31.411Z,19.57
2023-04-19T02:01:02.248Z,18.27
2023-04-19T02:03:30.894Z,17.80
2023-04-19T02:05:59.978Z,17.97
2023-04-19T02:08:29.112Z,18.43
2023-04-19T02:10:57.684Z,19.53
2023-04-19T02:13:26.730Z,21.30
2023-04-19T02:15:57.015Z,20.40
2023-04-19T02:18:26.565Z,21.20
2023-04-19T02:20:57.924Z,18.77
2023-04-19T02:23:26.861Z,19.33
2023-04-19T02:25:55.793Z,19.10
2023-04-19T02:28:24.615Z,20.00
2023-04-19T02:30:53.347Z,19.23
2023-04-19T02:33:24.200Z,21.17
2023-04-19T02:35:52.940Z,22.30
2023-04-19T02:38:22.120Z,21.83
2023-04-19T02:40:50.921Z,20.23
2023-04-19T02:43:20.090Z,18.87
2023-04-19T02:45:48.995Z,20.83
2023-04-19T02:48:17.842Z,20.27
2023-04-19T02:50:48.053Z,20.20
2023-04-19T02:53:17.183Z,20.37
2023-04-19T02:55:46.016Z,19.20
2023-04-19T02:58:14.569Z,19.13
2023-04-19T03:00:43.070Z,20.97
2023-04-19T03:03:11.679Z,16.60
2023-04-19T03:05:40.355Z,17.60
2023-04-19T03:08:11.420Z,19.27
2023-04-19T03:10:40.114Z,19.83
2023-04-19T03:13:09.002Z,19.30
2023-04-19T03:15:37.671Z,19.40
2023-04-19T03:18:06.341Z,19.37
2023-04-19T03:20:37.718Z,18.30
2023-04-19T03:23:06.484Z,22.83
2023-04-19T03:25:36.722Z,22.93
2023-04-19T03:28:06.056Z,17.20
2023-04-19T03:30:35.226Z,17.27
2023-04-19T03:33:03.808Z,18.93
2023-04-19T03:35:32.679Z,18.57
2023-04-19T03:38:01.520Z,18.77
2023-04-19T03:40:32.025Z,18.30
2023-04-19T03:43:02.426Z,18.33
2023-04-19T03:45:32.509Z,19.50
2023-04-19T03:48:03.004Z,18.20
2023-04-19T03:50:32.536Z,17.17
2023-04-19T03:53:01.274Z,18.80
2023-04-19T03:55:30.144Z,16.73
2023-04-19T03:57:58.922Z,18.10
2023-04-19T04:00:29.103Z,18.60
2023-04-19T04:02:58.150Z,17.70
2023-04-19T04:05:29.107Z,17.87
2023-04-19T04:07:57.986Z,19.10
2023-04-19T04:10:26.543Z,16.87
2023-04-19T04:12:55.445Z,18.00
2023-04-19T04:15:24.250Z,18.23
2023-04-19T04:17:54.579Z,17.53
2023-04-19T04:20:23.420Z,16.00
2023-04-19T04:22:52.890Z,20.00
2023-04-19T04:25:23.194Z,16.43
2023-04-19T04:27:53.505Z,18.60
2023-04-19T04:30:22.418Z,17.10
2023-04-19T04:32:51.737Z,17.13
2023-04-19T04:35:21.999Z,18.00
2023-04-19T04:37:51.116Z,18.20
2023-04-19T04:40:20.307Z,16.10
2023-04-19T04:42:49.700Z,18.37
2023-04-19T04:45:19.489Z,16.30
2023-04-19T04:47:48.374Z,17.00
2023-04-19T04:50:17.003Z,16.83
2023-04-19T04:52:47.187Z,17.87
2023-04-19T04:55:16.173Z,16.57
2023-04-19T04:57:45.147Z,15.60
2023-04-19T05:00:15.038Z,16.63
2023-04-19T05:02:44.331Z,17.13
2023-04-19T05:05:13.930Z,17.37
2023-04-19T05:07:43.018Z,16.53
2023-04-19T05:10:16.529Z,17.07
2023-04-19T05:12:45.330Z,16.00
2023-04-19T05:15:14.334Z,16.43
2023-04-19T05:17:44.066Z,16.30
2023-04-19T05:20:14.625Z,15.33
2023-04-19T05:22:44.187Z,16.00
2023-04-19T05:25:15.324Z,14.20
2023-04-19T05:27:43.830Z,14.77
2023-04-19T05:30:13.125Z,15.37
2023-04-19T05:32:42.589Z,17.33
2023-04-19T05:35:12.498Z,14.77
2023-04-19T05:37:41.886Z,16.37
2023-04-19T05:40:14.324Z,15.53
2023-04-19T05:42:45.209Z,16.70
2023-04-19T05:45:15.833Z,15.67
2023-04-19T05:47:46.795Z,15.90
2023-04-19T05:50:19.296Z,15.70
2023-04-19T05:52:48.371Z,16.43
2023-04-19T05:55:18.542Z,14.10
2023-04-19T05:57:48.882Z,15.00
2023-04-19T06:00:18.188Z,15.83
2023-04-19T06:02:47.309Z,14.70
2023-04-19T06:05:16.223Z,15.60
2023-04-19T06:07:54.551Z,15.60
2023-04-19T06:10:25.007Z,16.60
2023-04-19T06:12:58.903Z,16.80
2023-04-19T06:15:27.875Z,17.07
2023-04-19T06:17:58.004Z,17.07
2023-04-19T06:20:31.149Z,18.07
2023-04-19T06:22:59.964Z,18.30
2023-04-19T06:25:28.802Z,21.20
2023-04-19T06:27:58.839Z,17.20
2023-04-19T06:30:27.584Z,17.53
2023-04-19T06:32:56.416Z,17.87
2023-04-19T06:35:26.755Z,17.30
2023-04-19T06:37:55.574Z,15.50
2023-04-19T06:40:24.767Z,16.90
2023-04-19T06:42:54.016Z,15.00
2023-04-19T06:45:24.518Z,14.60
2023-04-19T06:47:53.360Z,17.30
2023-04-19T06:50:22.972Z,17.67
2023-04-19T06:52:53.919Z,16.70
2023-04-19T06:55:22.985Z,16.23
2023-04-19T06:57:52.630Z,15.87
2023-04-19T07:00:21.151Z,18.20
2023-04-19T07:02:52.623Z,16.27
2023-04-19T07:05:21.447Z,17.53
2023-04-19T07:07:50.400Z,15.90
2023-04-19T07:10:19.506Z,15.83
2023-04-19T07:12:48.063Z,17.80
2023-04-19T07:15:17.554Z,16.50
2023-04-19T07:17:46.056Z,16.30
2023-04-19T07:20:16.568Z,15.80
2023-04-19T07:22:45.375Z,18.63
2023-04-19T07:25:16.669Z,19.40
2023-04-19T07:27:47.266Z,17.73
2023-04-19T07:30:16.098Z,19.07
2023-04-19T07:32:48.485Z,16.40
2023-04-19T07:35:19.729Z,17.70
2023-04-19T07:37:48.576Z,18.10
2023-04-19T07:40:17.790Z,15.13
2023-04-19T07:42:46.549Z,16.77
2023-04-19T07:45:17.720Z,17.10
2023-04-19T07:47:46.408Z,18.17
2023-04-19T07:50:16.341Z,16.80
2023-04-19T07:52:46.643Z,16.50
2023-04-19T07:55:15.455Z,15.93
2023-04-19T07:57:48.241Z,15.77
2023-04-19T08:00:17.593Z,17.00
2023-04-19T08:02:46.858Z,18.47
2023-04-19T08:05:17.499Z,18.30
2023-04-19T08:07:47.924Z,17.80
2023-04-19T08:10:17.024Z,18.00
2023-04-19T08:12:57.436Z,20.10
2023-04-19T08:18:05.324Z,23.87
2023-04-19T08:20:34.288Z,22.27
2023-04-19T08:23:17.777Z,20.90
2023-04-19T08:25:47.494Z,19.83
2023-04-19T08:28:16.080Z,19.10
2023-04-19T08:30:45.273Z,17.83
2023-04-19T08:33:14.116Z,17.17
2023-04-19T08:35:45.605Z,17.47
2023-04-19T08:38:16.254Z,16.67
2023-04-19T08:40:48.164Z,15.97
2023-04-19T08:43:19.098Z,16.83
2023-04-19T08:45:48.486Z,16.70
2023-04-19T08:48:18.160Z,12.70
2023-04-19T08:51:03.418Z,12.87
2023-04-19T08:53:36.887Z,11.37
2023-04-19T08:56:12.642Z,11.53
2023-04-19T09:01:31.047Z,10.80
2023-04-19T09:04:25.997Z,10.13
2023-04-19T09:06:54.561Z,7.53
2023-04-19T09:09:37.251Z,6.30
2023-04-19T09:12:19.971Z,5.40
2023-04-19T09:15:01.380Z,4.67
2023-04-19T09:17:31.638Z,5.20
2023-04-19T09:20:01.427Z,5.03
2023-04-19T09:22:30.347Z,6.10
2023-04-19T09:27:33.684Z,5.30
2023-04-19T09:30:04.912Z,4.97
2023-04-19T09:32:51.008Z,4.90
2023-04-19T09:35:19.946Z,4.80
2023-04-19T09:38:06.279Z,2.83
2023-04-19T09:40:43.067Z,2.30
2023-04-19T09:45:49.761Z,2.33
2023-04-19T09:48:19.021Z,2.57
2023-04-19T09:51:00.792Z,2.33
2023-04-19T09:53:35.060Z,2.30
2023-04-19T09:56:13.081Z,2.17
2023-04-19T09:58:49.642Z,2.23
2023-04-19T10:01:26.148Z,2.83
2023-04-19T10:03:55.973Z,2.37
2023-04-19T10:08:57.197Z,2.30
2023-04-19T10:11:28.548Z,2.30
2023-04-19T10:14:00.704Z,2.17
2023-04-19T10:16:29.524Z,1.93
2023-04-19T10:18:59.054Z,1.93
2023-04-19T10:21:28.932Z,2.50
2023-04-19T10:23:58.461Z,3.50
2023-04-19T10:26:29.160Z,3.33
2023-04-19T10:28:58.918Z,3.87
2023-04-19T10:31:28.483Z,3.03
2023-04-19T10:33:57.931Z,3.37
2023-04-19T10:36:29.183Z,2.93
2023-04-19T10:38:59.792Z,3.30
2023-04-19T10:41:58.503Z,2.97
2023-04-19T10:44:27.014Z,3.13
2023-04-19T10:46:56.023Z,3.17
2023-04-19T10:49:25.953Z,3.20
2023-04-19T10:51:55.947Z,3.37
2023-04-19T10:54:32.721Z,3.00
2023-04-19T10:57:04.975Z,3.80
2023-04-19T10:59:34.667Z,4.20
2023-04-19T11:02:06.119Z,4.90
2023-04-19T11:05:01.837Z,4.50
2023-04-19T11:07:40.981Z,4.07
2023-04-19T11:10:11.883Z,4.27
2023-04-19T11:12:46.554Z,5.40
2023-04-19T11:15:15.713Z,5.20
2023-04-19T11:17:44.928Z,3.40
2023-04-19T11:20:16.736Z,4.80
2023-04-19T11:22:47.864Z,4.00
2023-04-19T11:25:19.594Z,5.20
2023-04-19T11:27:53.417Z,4.47
2023-04-19T11:30:30.952Z,3.97
2023-04-19T11:33:03.013Z,4.63
2023-04-19T11:35:32.348Z,5.47
2023-04-19T11:38:02.186Z,5.90
2023-04-19T11:40:30.792Z,5.33
2023-04-19T11:43:02.516Z,5.13
2023-04-19T11:45:38.607Z,5.03
2023-04-19T11:48:09.512Z,4.60
2023-04-19T11:50:39.868Z,5.33
2023-04-19T11:53:16.396Z,5.10
2023-04-19T11:55:47.016Z,4.10
2023-04-19T11:58:31.378Z,6.03
2023-04-19T12:01:06.811Z,4.13
2023-04-19T12:03:37.107Z,4.10
2023-04-19T12:06:09.378Z,4.60
2023-04-19T12:08:39.116Z,4.13
2023-04-19T12:11:10.183Z,4.97
2023-04-19T12:13:41.352Z,4.10
2023-04-19T12:16:10.286Z,4.70
2023-04-19T12:18:46.212Z,4.30
2023-04-19T12:21:27.683Z,4.50
2023-04-19T12:23:58.647Z,4.87
2023-04-19T12:26:28.563Z,4.43
2023-04-19T12:28:59.653Z,5.07
2023-04-19T12:31:28.767Z,4.07
2023-04-19T12:33:57.283Z,4.93
2023-04-19T12:36:26.798Z,4.17
2023-04-19T12:38:55.368Z,5.63
2023-04-19T12:41:24.456Z,4.13
2023-04-19T12:43:53.160Z,5.20
2023-04-19T12:46:23.413Z,4.93
2023-04-19T12:48:52.225Z,4.20
2023-04-19T12:51:20.937Z,4.53
2023-04-19T12:53:50.676Z,4.83
2023-04-19T12:56:19.949Z,4.30
2023-04-19T12:58:48.605Z,5.10
2023-04-19T13:01:17.291Z,7.30
2023-04-19T13:03:47.774Z,6.80
2023-04-19T13:06:17.395Z,6.03
2023-04-19T13:08:47.964Z,4.60
2023-04-19T13:11:17.981Z,5.53
2023-04-19T13:13:46.569Z,5.20
2023-04-19T13:16:15.378Z,7.90
2023-04-19T13:18:44.509Z,5.00
2023-04-19T13:21:14.528Z,13.90
2023-04-19T13:23:45.592Z,8.90
2023-04-19T13:26:14.729Z,4.80
2023-04-19T13:28:44.142Z,4.60
2023-04-19T13:31:13.171Z,7.33
2023-04-19T13:33:42.876Z,5.30
2023-04-19T13:36:11.780Z,5.30
2023-04-19T13:38:43.490Z,4.50
2023-04-19T13:41:12.289Z,4.83
2023-04-19T13:43:41.115Z,4.77
2023-04-19T13:46:11.888Z,3.80
2023-04-19T13:48:41.390Z,3.10
2023-04-19T13:51:10.322Z,4.10
2023-04-19T13:53:41.105Z,2.53
2023-04-19T13:56:16.216Z,3.43
2023-04-19T13:58:45.269Z,2.03
2023-04-19T14:01:16.988Z,11.73
2023-04-19T14:03:46.509Z,3.60
2023-04-19T14:06:15.627Z,3.60
2023-04-19T14:08:44.909Z,3.37
2023-04-19T14:11:15.447Z,3.20
2023-04-19T14:13:44.393Z,3.00
2023-04-19T14:16:13.472Z,4.40
2023-04-19T14:18:42.745Z,4.00
2023-04-19T14:21:11.987Z,3.50
2023-04-19T14:23:41.008Z,2.70
2023-04-19T14:30:37.811Z,4.10
2023-04-19T14:34:08.980Z,4.00
2023-04-19T14:36:37.676Z,4.30
2023-04-19T14:39:07.758Z,3.57
2023-04-19T14:41:36.509Z,3.33
2023-04-19T14:44:05.281Z,3.30
2023-04-19T14:46:40.033Z,3.37
2023-04-19T14:49:08.746Z,3.83
2023-04-19T14:51:37.252Z,4.30
2023-04-19T14:54:06.381Z,4.50
2023-04-19T14:56:35.337Z,5.30
2023-04-19T14:59:04.185Z,5.10
2023-04-19T15:01:34.763Z,4.40
2023-04-19T15:04:05.145Z,5.00
2023-04-19T15:06:36.113Z,4.77
2023-04-19T15:09:05.535Z,3.83
2023-04-19T15:11:34.508Z,3.60
2023-04-19T15:14:05.602Z,4.23
2023-04-19T15:16:36.225Z,4.40
2023-04-19T15:19:07.704Z,3.73
2023-04-19T15:21:38.966Z,5.03
2023-04-19T15:24:11.201Z,4.50
2023-04-19T15:26:42.158Z,3.77
2023-04-19T15:29:12.539Z,4.70
2023-04-19T15:31:42.564Z,4.20
2023-04-19T15:34:11.724Z,4.43
2023-04-19T15:36:40.928Z,4.47
2023-04-19T15:39:09.720Z,4.63
2023-04-19T15:41:40.980Z,4.17
2023-04-19T15:44:09.604Z,4.40
2023-04-19T15:46:38.346Z,3.77
2023-04-19T15:49:09.260Z,4.43
2023-04-19T15:51:38.425Z,4.47
2023-04-19T15:54:09.086Z,3.37
2023-04-19T15:56:37.665Z,3.93
2023-04-19T15:59:09.744Z,4.33
2023-04-19T16:01:40.197Z,4.60
2023-04-19T16:04:10.895Z,4.53
2023-04-19T16:06:42.573Z,6.27
2023-04-19T16:09:11.680Z,5.27
2023-04-19T16:11:40.583Z,5.87
2023-04-19T16:14:12.952Z,5.20
2023-04-19T16:16:42.514Z,5.50
2023-04-19T16:19:12.791Z,4.90
2023-04-19T16:21:41.863Z,5.97
2023-04-19T16:24:12.128Z,5.60
2023-04-19T16:26:40.725Z,4.97
2023-04-19T16:29:09.407Z,5.00
2023-04-19T16:31:39.158Z,5.27
2023-04-19T16:34:07.807Z,5.73
2023-04-19T16:36:38.566Z,7.10
2023-04-19T16:39:07.234Z,6.83
2023-04-19T16:41:36.155Z,6.50
2023-04-19T16:44:06.659Z,4.73
2023-04-19T16:46:36.171Z,3.97
2023-04-19T16:49:06.832Z,2.53
2023-04-19T16:51:39.410Z,2.13
2023-04-19T16:54:10.171Z,2.70
2023-04-19T16:56:39.341Z,2.63
2023-04-19T16:59:08.305Z,3.90
2023-04-19T17:01:37.279Z,4.10
2023-04-19T17:04:11.936Z,3.33
2023-04-19T17:06:44.486Z,9.70
2023-04-19T17:09:13.393Z,4.27
2023-04-19T17:11:41.984Z,3.90
2023-04-19T17:14:11.521Z,4.33
2023-04-19T17:16:40.243Z,4.10
2023-04-19T17:19:09.521Z,6.40
2023-04-19T17:21:39.009Z,5.07
2023-04-19T17:24:09.487Z,4.07
2023-04-19T17:26:38.207Z,5.17
2023-04-19T17:29:07.267Z,3.20
2023-04-19T17:31:35.908Z,4.20
2023-04-19T17:34:07.516Z,4.60
2023-04-19T17:36:36.658Z,4.73
2023-04-19T17:39:07.060Z,3.93
2023-04-19T17:41:37.517Z,3.80
2023-04-19T17:44:06.527Z,3.37
2023-04-19T17:46:41.350Z,3.40
2023-04-19T17:49:10.946Z,2.70
2023-04-19T17:51:39.822Z,3.40
2023-04-19T17:54:09.008Z,3.43
2023-04-19T17:56:39.270Z,2.80
2023-04-19T17:59:10.267Z,3.63
2023-04-19T18:01:39.137Z,3.20
2023-04-19T18:04:09.666Z,4.50
2023-04-19T18:06:39.216Z,4.13
2023-04-19T18:09:09.285Z,4.00
2023-04-19T18:11:39.906Z,4.40
2023-04-19T18:14:09.188Z,4.97
2023-04-19T18:16:38.603Z,3.57
2023-04-19T18:19:07.712Z,4.57
2023-04-19T18:21:37.370Z,4.20
2023-04-19T18:24:07.864Z,5.00
2023-04-19T18:26:42.207Z,3.70
2023-04-19T18:29:12.672Z,4.80
2023-04-19T18:31:41.951Z,3.60
2023-04-19T18:34:12.564Z,3.87
2023-04-19T18:36:41.916Z,4.30
2023-04-19T18:39:13.825Z,4.70
2023-04-19T18:41:44.120Z,3.83
2023-04-19T18:44:39.227Z,4.57
2023-04-19T18:47:02.778Z,4.40
2023-04-19T18:49:32.253Z,3.40
2023-04-19T18:52:01.575Z,4.63
2023-04-19T18:54:32.358Z,4.20
2023-04-19T18:59:35.493Z,3.50
2023-04-19T19:02:04.455Z,3.50
2023-04-19T19:04:51.279Z,3.07
2023-04-19T19:07:34.872Z,2.90
2023-04-19T19:10:18.252Z,3.40
2023-04-19T19:12:51.573Z,5.10
2023-04-19T19:15:20.867Z,4.33
2023-04-19T19:17:50.742Z,4.53
2023-04-19T19:20:20.641Z,4.70
2023-04-19T19:22:51.281Z,4.10
2023-04-19T19:25:24.044Z,4.07
2023-04-19T19:28:07.477Z,4.40
2023-04-19T19:30:43.173Z,4.83
2023-04-19T19:33:18.140Z,3.33
2023-04-19T19:35:47.401Z,4.20
2023-04-19T19:38:16.779Z,4.83
2023-04-19T19:41:28.124Z,4.37
2023-04-19T19:43:41.831Z,4.97
2023-04-19T19:46:11.167Z,4.87
2023-04-19T19:48:42.794Z,5.53
2023-04-19T19:53:43.771Z,5.67
2023-04-19T19:56:20.947Z,5.60
2023-04-19T19:58:52.734Z,5.60
2023-04-19T20:01:22.538Z,5.20
2023-04-19T20:03:53.049Z,4.87
2023-04-19T20:08:56.396Z,5.47
2023-04-19T20:11:26.017Z,5.90
2023-04-19T20:13:56.085Z,5.00
2023-04-19T20:16:25.829Z,5.13
2023-04-19T20:18:54.920Z,5.07
2023-04-19T20:21:23.459Z,5.57
2023-04-19T20:23:53.154Z,5.97
2023-04-19T20:26:22.112Z,5.50
2023-04-19T20:28:51.921Z,4.93
2023-04-19T20:31:23.826Z,5.17
2023-04-19T20:33:53.897Z,4.77
2023-04-19T20:36:25.382Z,5.30
2023-04-19T20:38:59.166Z,5.83
2023-04-19T20:41:28.359Z,5.43
2023-04-19T20:43:59.990Z,4.83
2023-04-19T20:46:35.699Z,4.57
2023-04-19T20:49:04.477Z,5.50
2023-04-19T20:51:33.449Z,4.30
2023-04-19T20:54:02.169Z,5.90
2023-04-19T20:56:33.373Z,5.50
2023-04-19T20:59:02.296Z,5.10
2023-04-19T21:01:34.176Z,4.73
2023-04-19T21:04:03.541Z,5.60
2023-04-19T21:06:32.792Z,4.30
2023-04-19T21:09:01.655Z,5.23
2023-04-19T21:11:30.809Z,5.03
2023-04-19T21:13:59.625Z,5.73
2023-04-19T21:16:28.485Z,4.97
2023-04-19T21:18:58.718Z,5.57
2023-04-19T21:21:28.689Z,5.20
2023-04-19T21:24:00.069Z,4.83
2023-04-19T21:26:28.671Z,5.60
2023-04-19T21:28:57.180Z,6.00
2023-04-19T21:31:25.884Z,5.40
2023-04-19T21:33:54.904Z,6.53
2023-04-19T21:36:25.020Z,5.40
2023-04-19T21:38:54.217Z,5.37
2023-04-19T21:41:22.932Z,5.57
2023-04-19T21:43:51.916Z,5.13
2023-04-19T21:46:20.484Z,6.03
2023-04-19T21:48:49.288Z,6.60
2023-04-19T21:51:17.608Z,6.17
2023-04-19T21:53:49.588Z,4.90
2023-04-19T21:56:18.341Z,5.30
2023-04-19T21:58:47.541Z,6.17
2023-04-19T22:01:16.879Z,5.33
2023-04-19T22:03:46.714Z,5.20
2023-04-19T22:06:17.302Z,5.07
2023-04-19T22:08:48.700Z,5.43
2023-04-19T22:11:18.014Z,5.30
2023-04-19T22:13:47.247Z,6.40
2023-04-19T22:16:16.200Z,5.53
2023-04-19T22:18:45.189Z,5.47
2023-04-19T22:21:14.240Z,5.60
2023-04-19T22:23:42.771Z,6.50
2023-04-19T22:26:12.804Z,6.30
2023-04-19T22:28:41.572Z,5.40
2023-04-19T22:31:10.813Z,6.30
2023-04-19T22:33:39.478Z,5.57
2023-04-19T22:36:09.459Z,5.27
2023-04-19T22:38:38.288Z,5.57
2023-04-19T22:41:07.049Z,5.13
2023-04-19T22:43:38.146Z,5.77
2023-04-19T22:46:10.088Z,5.47
2023-04-19T22:48:38.971Z,5.57
2023-04-19T22:51:08.153Z,5.10
2023-04-19T22:53:37.707Z,5.17
2023-04-19T22:56:07.170Z,5.73
2023-04-19T22:58:36.998Z,4.80
2023-04-19T23:01:05.808Z,5.83
2023-04-19T23:03:35.245Z,5.77
2023-04-19T23:06:04.429Z,5.20
2023-04-19T23:08:33.658Z,5.57
2023-04-19T23:11:02.532Z,5.53
2023-04-19T23:13:31.204Z,5.77
2023-04-19T23:16:01.788Z,6.20
2023-04-19T23:18:31.889Z,5.30
2023-04-19T23:21:01.040Z,6.00
2023-04-19T23:23:29.707Z,5.90
2023-04-19T23:25:58.526Z,5.97
2023-04-19T23:28:27.892Z,5.90
2023-04-19T23:30:56.846Z,6.67
2023-04-19T23:33:35.039Z,4.80
2023-04-19T23:36:04.343Z,6.03
2023-04-19T23:38:33.292Z,6.23
2023-04-19T23:41:02.472Z,5.60
2023-04-19T23:43:31.267Z,6.13
2023-04-19T23:46:00.196Z,5.60
2023-04-19T23:48:30.176Z,6.00
2023-04-19T23:50:59.148Z,5.83
2023-04-19T23:53:27.532Z,6.47
2023-04-19T23:55:56.519Z,5.37
2023-04-19T23:58:25.404Z,5.97
